^^
Lake Charleston Parkviewx Station Historical Data
 
Daily Summary for January 22, 2020 Units:  English    Metric   Both
Daily Weekly Monthly Yearly Custom
  Current: High: Low: Average:
Temperature: 45.7 °F 45.7 °F 40.3 °F 42.1 °F
Dew Point: 38.4 °F 38.6 °F 32.8 °F 34.2 °F
Humidity: 75.4% 77% 70.4% 74%
Wind Speed: 11.2mph 14.9mph 6.9mph 10.9mph
Wind Gust: 18mph 24mph - -
WindWNW - - NW
Pressure: 30.09 in 30.14 in 30.09 in -
Precipitation: 0.00 in      
Historical Graphs
 
 
Tabular Data for January 22, 2020
Time Temperature Dew Point Pressure Wind Wind Speed Wind Gust Humidity Rainfall Rate (Hourly) solar
00:04 45 °F 36.4 °F 30.14 in NW 11.3 mph 18 mph 71.8% 0.00 in W/m2
00:09 45 °F 36.7 °F 30.14 in NW 10 mph 20 mph 72.5% 0.00 in W/m2
00:14 44.9 °F 36.3 °F 30.14 in NW 11.8 mph 17 mph 71.7% 0.00 in W/m2
00:19 44.8 °F 36.1 °F 30.13 in NW 11.7 mph 19 mph 71.3% 0.00 in W/m2
00:24 44.8 °F 36.4 °F 30.13 in NNW 11.2 mph 19 mph 72.3% 0.00 in W/m2
00:29 44.7 °F 36.2 °F 30.13 in NW 11.5 mph 19 mph 72% 0.00 in W/m2
00:34 44.6 °F 36.3 °F 30.13 in NNW 10.3 mph 19 mph 72.4% 0.00 in W/m2
00:39 44.4 °F 36.2 °F 30.13 in NNW 10.1 mph 18 mph 72.6% 0.00 in W/m2
00:44 44.3 °F 35.8 °F 30.12 in NW 11.5 mph 17 mph 71.8% 0.00 in W/m2
00:49 44.2 °F 35.8 °F 30.12 in NW 9.1 mph 17 mph 72.1% 0.00 in W/m2
00:54 44.2 °F 35.8 °F 30.12 in NW 11 mph 17 mph 72% 0.00 in W/m2
00:59 44.1 °F 35.8 °F 30.12 in NNW 9.4 mph 17 mph 72.5% 0.00 in W/m2
01:04 44.1 °F 35.9 °F 30.12 in NW 8.9 mph 16 mph 72.8% 0.00 in W/m2
01:09 44 °F 35.8 °F 30.12 in NW 8.7 mph 16 mph 72.6% 0.00 in W/m2
01:14 43.8 °F 35.4 °F 30.12 in NW 10.9 mph 17 mph 72.1% 0.00 in W/m2
01:19 43.5 °F 35.2 °F 30.12 in NW 10.5 mph 17 mph 72.5% 0.00 in W/m2
01:24 43.3 °F 35.1 °F 30.12 in NW 9.5 mph 16 mph 72.5% 0.00 in W/m2
01:29 43.2 °F 35.2 °F 30.12 in NW 9.8 mph 17 mph 73.1% 0.00 in W/m2
01:34 43.1 °F 34.7 °F 30.12 in NW 11.6 mph 19 mph 72% 0.00 in W/m2
01:39 43 °F 34.6 °F 30.11 in NW 10.1 mph 19 mph 72.1% 0.00 in W/m2
01:44 42.9 °F 34.2 °F 30.11 in NW 11.7 mph 19 mph 71.2% 0.00 in W/m2
01:49 42.6 °F 33.9 °F 30.11 in NW 11.6 mph 19 mph 71.1% 0.00 in W/m2
01:54 42.6 °F 33.9 °F 30.11 in NW 13.1 mph 19 mph 71.2% 0.00 in W/m2
01:59 42.6 °F 33.8 °F 30.11 in NW 11.8 mph 19 mph 71.1% 0.00 in W/m2
02:04 42.4 °F 33.6 °F 30.11 in NW 12.8 mph 20 mph 70.9% 0.00 in W/m2
02:09 42.4 °F 33.5 °F 30.11 in NNW 11.9 mph 20 mph 70.5% 0.00 in W/m2
02:14 42.4 °F 33.5 °F 30.11 in NNW 11.1 mph 18 mph 70.4% 0.00 in W/m2
02:19 42.4 °F 33.5 °F 30.11 in NW 10.8 mph 20 mph 70.7% 0.00 in W/m2
02:24 42.4 °F 33.5 °F 30.11 in NW 12.1 mph 24 mph 70.5% 0.00 in W/m2
02:29 42.3 °F 33.4 °F 30.11 in NW 11.5 mph 24 mph 70.4% 0.00 in W/m2
02:34 42.3 °F 33.4 °F 30.11 in NNW 11.5 mph 24 mph 70.4% 0.00 in W/m2
02:39 42.3 °F 33.5 °F 30.11 in NW 11.4 mph 24 mph 70.8% 0.00 in W/m2
02:44 42.3 °F 33.5 °F 30.10 in NNW 10.7 mph 18 mph 70.9% 0.00 in W/m2
02:49 42.2 °F 33.4 °F 30.10 in NNW 12.4 mph 20 mph 70.8% 0.00 in W/m2
02:54 42.1 °F 33.2 °F 30.11 in NNW 13 mph 21 mph 70.4% 0.00 in W/m2
02:59 42.1 °F 33.3 °F 30.10 in NNW 11.1 mph 19 mph 70.7% 0.00 in W/m2
03:04 42.1 °F 33.5 °F 30.10 in NW 10.9 mph 21 mph 71.4% 0.00 in W/m2
03:09 42 °F 33.2 °F 30.10 in NW 11.2 mph 18 mph 70.6% 0.00 in W/m2
03:14 41.7 °F 33.1 °F 30.10 in NW 11.4 mph 19 mph 70.8% 0.00 in W/m2
03:19 41.7 °F 33.1 °F 30.10 in NW 10.7 mph 16 mph 70.9% 0.00 in W/m2
03:24 41.7 °F 32.9 °F 30.10 in NW 11.7 mph 19 mph 70.6% 0.00 in W/m2
03:29 41.7 °F 33.1 °F 30.10 in NW 11 mph 17 mph 71.1% 0.00 in W/m2
03:34 41.7 °F 33.1 °F 30.10 in NW 10.1 mph 18 mph 71.1% 0.00 in W/m2
03:39 41.6 °F 33.3 °F 30.10 in NW 11.4 mph 20 mph 71.8% 0.00 in W/m2
03:44 41.5 °F 32.9 °F 30.10 in NW 10.9 mph 20 mph 71.1% 0.00 in W/m2
03:49 41.5 °F 33.2 °F 30.10 in NW 11.7 mph 21 mph 71.8% 0.00 in W/m2
03:54 41.5 °F 33.2 °F 30.11 in NW 11.2 mph 23 mph 71.9% 0.00 in W/m2
03:59 41.5 °F 33.1 °F 30.11 in NW 10 mph 23 mph 71.6% 0.00 in W/m2
04:04 41.5 °F 33.3 °F 30.11 in NW 12 mph 23 mph 72.1% 0.00 in W/m2
04:09 41.5 °F 33.1 °F 30.10 in NW 11.4 mph 23 mph 71.7% 0.00 in W/m2
04:14 41.4 °F 33.2 °F 30.10 in NW 12.3 mph 22 mph 72% 0.00 in W/m2
04:19 41.4 °F 32.8 °F 30.10 in NW 13.1 mph 21 mph 71.1% 0.00 in W/m2
04:24 41.4 °F 33.1 °F 30.09 in NW 11.4 mph 19 mph 72.2% 0.00 in W/m2
04:29 41.4 °F 33.3 °F 30.10 in NNW 9.6 mph 21 mph 72.8% 0.00 in W/m2
04:34 41.4 °F 33.1 °F 30.10 in NW 11.2 mph 20 mph 72.2% 0.00 in W/m2
04:39 41.4 °F 33.1 °F 30.10 in NW 11.1 mph 20 mph 72.3% 0.00 in W/m2
04:44 41.4 °F 33.2 °F 30.10 in NW 11 mph 20 mph 72.4% 0.00 in W/m2
04:49 41.2 °F 33.2 °F 30.09 in NW 11.6 mph 20 mph 72.7% 0.00 in W/m2
04:54 41.2 °F 33.2 °F 30.09 in NW 10.6 mph 18 mph 72.7% 0.00 in W/m2
04:59 41.2 °F 32.9 °F 30.09 in NW 11.7 mph 18 mph 72.2% 0.00 in W/m2
05:04 41.2 °F 33.3 °F 30.09 in NW 12.2 mph 19 mph 73.3% 0.00 in W/m2
05:09 41.1 °F 33.3 °F 30.09 in NW 10.5 mph 19 mph 73.4% 0.00 in W/m2
05:14 41 °F 33.2 °F 30.09 in NW 12.8 mph 19 mph 73.3% 0.00 in W/m2
05:19 40.9 °F 33.2 °F 30.09 in NW 11.9 mph 16 mph 73.6% 0.00 in W/m2
05:24 40.8 °F 33 °F 30.09 in NW 10.6 mph 19 mph 73.4% 0.00 in W/m2
05:29 40.7 °F 33.2 °F 30.09 in NW 10.6 mph 17 mph 74% 0.00 in W/m2
05:34 40.6 °F 33.1 °F 30.09 in NW 11.2 mph 18 mph 74% 0.00 in W/m2
05:39 40.6 °F 33.2 °F 30.09 in NNW 10 mph 18 mph 74.5% 0.00 in W/m2
05:44 40.6 °F 33.3 °F 30.09 in NNW 10.2 mph 18 mph 74.9% 0.00 in W/m2
05:49 40.6 °F 33.2 °F 30.09 in NW 10 mph 18 mph 74.6% 0.00 in W/m2
05:54 40.6 °F 33.2 °F 30.09 in NW 9.2 mph 16 mph 74.6% 0.00 in W/m2
05:59 40.5 °F 33.3 °F 30.10 in NW 9.4 mph 16 mph 75.3% 0.00 in W/m2
06:04 40.5 °F 33.3 °F 30.10 in NNW 9.2 mph 16 mph 75.5% 0.00 in W/m2
06:09 40.5 °F 33.2 °F 30.10 in NNW 9.9 mph 17 mph 75.2% 0.00 in W/m2
06:14 40.5 °F 33.3 °F 30.10 in NNW 9.8 mph 17 mph 75.7% 0.00 in W/m2
06:19 40.5 °F 33.4 °F 30.10 in NW 10.9 mph 16 mph 75.8% 0.00 in W/m2
06:24 40.5 °F 33.5 °F 30.10 in NNW 9.7 mph 17 mph 76.1% 0.00 in W/m2
06:29 40.4 °F 33.1 °F 30.10 in NW 11.3 mph 16 mph 75.1% 0.00 in W/m2
06:34 40.3 °F 33.1 °F 30.10 in NW 11.5 mph 17 mph 74.9% 0.00 in W/m2
06:39 40.4 °F 33.2 °F 30.11 in NNW 10.6 mph 16 mph 75.3% 0.00 in W/m2
06:44 40.5 °F 33.4 °F 30.11 in NNW 10.4 mph 16 mph 76.2% 0.00 in W/m2
06:49 40.3 °F 33 °F 30.11 in NW 11.1 mph 16 mph 74.9% 0.00 in W/m2
06:54 40.3 °F 33.2 °F 30.11 in NW 8.6 mph 15 mph 75.4% 0.00 in W/m2
06:59 40.3 °F 33.5 °F 30.11 in NW 6.9 mph 15 mph 76.7% 0.00 in W/m2
07:04 40.3 °F 33.6 °F 30.11 in NW 8.3 mph 15 mph 76.8% 0.00 in W/m2
07:09 40.4 °F 33.4 °F 30.11 in NNW 8.3 mph 15 mph 76.3% 0.00 in W/m2
07:14 40.4 °F 33.6 °F 30.12 in NNW 9.5 mph 16 mph 76.9% 0.00 in W/m2
07:19 40.5 °F 33.5 °F 30.11 in NW 9.1 mph 16 mph 76.2% 0.00 in W/m2
07:24 40.5 °F 33.6 °F 30.11 in NW 9 mph 16 mph 76.6% 0.00 in W/m2
07:29 40.5 °F 33.5 °F 30.11 in NW 9.4 mph 16 mph 76.2% 0.00 in W/m2
07:34 40.4 °F 33.5 °F 30.11 in NW 8.5 mph 15 mph 76.4% 0.00 in W/m2
07:39 40.5 °F 33.2 °F 30.11 in NW 10.7 mph 19 mph 75.5% 0.00 in W/m2
07:44 40.5 °F 33.5 °F 30.11 in NW 8.1 mph 14 mph 76.2% 0.00 in W/m2
07:49 40.5 °F 33.9 °F 30.11 in NW 7.6 mph 19 mph 77% 0.00 in W/m2
07:54 40.6 °F 33.9 °F 30.11 in NW 9 mph 15 mph 76.9% 0.00 in W/m2
07:59 40.8 °F 34 °F 30.11 in NW 8.1 mph 15 mph 76.5% 0.00 in W/m2
08:04 40.8 °F 34 °F 30.11 in NW 9.3 mph 15 mph 76.5% 0.00 in W/m2
08:09 40.8 °F 34.1 °F 30.10 in NW 11.5 mph 15 mph 76.8% 0.00 in W/m2
08:14 40.8 °F 34.2 °F 30.10 in NW 10.4 mph 17 mph 77% 0.00 in W/m2
08:19 41.1 °F 34.2 °F 30.10 in NW 11.9 mph 20 mph 76.6% 0.00 in W/m2
08:24 41.3 °F 34.3 °F 30.11 in NW 13.6 mph 20 mph 76% 0.00 in W/m2
08:29 41.6 °F 34.4 °F 30.11 in NW 12.5 mph 20 mph 75.7% 0.00 in W/m2
08:34 41.9 °F 34.7 °F 30.11 in NW 14.7 mph 21 mph 75.5% 0.00 in W/m2
08:39 42.2 °F 35.1 °F 30.11 in NW 12 mph 22 mph 75.9% 0.00 in W/m2
08:44 42.4 °F 35.1 °F 30.11 in NW 14.6 mph 24 mph 75% 0.00 in W/m2
08:49 42.7 °F 35.7 °F 30.11 in NW 13.4 mph 22 mph 76% 0.00 in W/m2
08:54 43.1 °F 36.1 °F 30.11 in NW 14.2 mph 24 mph 76% 0.00 in W/m2
08:59 43.3 °F 36.1 °F 30.11 in NW 14.9 mph 23 mph 75.6% 0.00 in W/m2
09:04 43.4 °F 36.4 °F 30.11 in NW 13.9 mph 23 mph 75.9% 0.00 in W/m2
09:09 44 °F 37.2 °F 30.11 in NNW 12.1 mph 23 mph 76.7% 0.00 in W/m2
09:14 44.3 °F 37.5 °F 30.11 in NW 12 mph 23 mph 76.4% 0.00 in W/m2
09:19 44.8 °F 37.9 °F 30.10 in NNW 10.8 mph 20 mph 76.7% 0.00 in W/m2
09:24 45 °F 37.9 °F 30.10 in NW 10.7 mph 20 mph 76.1% 0.00 in W/m2
09:29 45.3 °F 38.5 °F 30.10 in NW 8.4 mph 16 mph 77% 0.00 in W/m2
09:34 45.7 °F 38.6 °F 30.09 in WNW 10.2 mph 19 mph 76.2% 0.00 in W/m2
09:39 45.7 °F 38.4 °F 30.09 in WNW 11.2 mph 18 mph 75.4% 0.00 in W/m2
Lake Worth, USA
Compliments of Weather Underground - 4 mb